createdAt,value
2018-11-07T01:29:19.437Z,17.19
2018-11-07T01:29:20.012Z,17.19
2018-11-07T01:29:20.610Z,17.00
2018-11-07T01:29:21.210Z,17.00
2018-11-07T01:29:21.813Z,17.10
2018-11-07T01:29:22.411Z,17.29
2018-11-07T01:29:23.008Z,17.10
2018-11-07T01:30:17.067Z,17.00
2018-11-07T01:30:17.665Z,17.19
2018-11-07T01:30:18.263Z,17.57
2018-11-07T01:30:18.865Z,17.10
2018-11-07T01:30:19.462Z,17.10
2018-11-07T01:30:20.062Z,17.00
2018-11-07T01:30:20.663Z,17.00
2018-11-07T01:31:14.740Z,17.38
2018-11-07T01:31:15.315Z,17.38
2018-11-07T01:31:15.915Z,17.38
2018-11-07T01:31:16.514Z,17.38
2018-11-07T01:31:17.113Z,17.38
2018-11-07T01:31:17.714Z,17.57
2018-11-07T01:31:18.314Z,17.10
2018-11-07T01:32:12.371Z,16.91
2018-11-07T01:32:12.967Z,17.00
2018-11-07T01:32:13.567Z,17.19
2018-11-07T01:32:14.166Z,17.19
2018-11-07T01:32:14.767Z,17.19
2018-11-07T01:32:15.367Z,17.10
2018-11-07T01:32:15.970Z,17.00
2018-11-07T01:33:10.023Z,17.57
2018-11-07T01:33:10.627Z,17.00
2018-11-07T01:33:11.220Z,17.57
2018-11-07T01:33:11.819Z,17.57
2018-11-07T01:33:12.419Z,17.00
2018-11-07T01:33:13.018Z,17.10
2018-11-07T01:33:13.618Z,17.00
2018-11-07T01:34:07.677Z,17.66
2018-11-07T01:34:08.271Z,17.29
2018-11-07T01:34:08.871Z,17.00
2018-11-07T01:34:09.472Z,17.38
2018-11-07T01:34:10.074Z,17.00
2018-11-07T01:34:10.675Z,17.57
2018-11-07T01:34:11.268Z,17.00
2018-11-07T01:35:05.327Z,17.38
2018-11-07T01:35:05.923Z,17.00
2018-11-07T01:35:06.523Z,17.66
2018-11-07T01:35:07.124Z,17.00
2018-11-07T01:35:07.724Z,17.00
2018-11-07T01:35:08.326Z,17.00
2018-11-07T01:35:08.922Z,17.57
2018-11-07T01:36:03.001Z,16.91
2018-11-07T01:36:03.576Z,17.19
2018-11-07T01:36:04.181Z,17.19
2018-11-07T01:36:04.777Z,17.19
2018-11-07T01:36:05.375Z,17.19
2018-11-07T01:36:05.976Z,17.10
2018-11-07T01:36:06.575Z,17.19
2018-11-07T01:37:00.631Z,17.19
2018-11-07T01:37:01.232Z,17.19
2018-11-07T01:37:01.828Z,17.10
2018-11-07T01:37:02.429Z,17.10
2018-11-07T01:37:03.028Z,17.10
2018-11-07T01:37:03.628Z,17.19
2018-11-07T01:37:04.227Z,17.19
2018-11-07T01:37:58.283Z,17.10
2018-11-07T01:37:58.881Z,17.38
2018-11-07T01:37:59.481Z,17.00
2018-11-07T01:38:00.080Z,17.10
2018-11-07T01:38:00.679Z,17.10
2018-11-07T01:38:01.279Z,17.19
2018-11-07T01:38:01.880Z,17.00
2018-11-07T01:38:55.933Z,17.19
2018-11-07T01:38:56.534Z,16.91
2018-11-07T01:38:57.133Z,17.10
2018-11-07T01:38:57.731Z,17.10
2018-11-07T01:38:58.331Z,17.10
2018-11-07T01:38:58.932Z,17.10
2018-11-07T01:38:59.532Z,17.10
2018-11-07T01:39:53.589Z,17.00
2018-11-07T01:39:54.183Z,17.00
2018-11-07T01:39:54.782Z,17.10
2018-11-07T01:39:55.383Z,17.38
2018-11-07T01:39:55.983Z,17.00
2018-11-07T01:39:56.582Z,17.38
2018-11-07T01:39:57.183Z,17.00
2018-11-07T01:40:51.263Z,17.19
2018-11-07T01:40:51.835Z,16.81
2018-11-07T01:40:52.435Z,16.81
2018-11-07T01:40:53.035Z,17.10
2018-11-07T01:40:53.636Z,16.81
2018-11-07T01:40:54.235Z,16.91
2018-11-07T01:40:54.837Z,16.91
2018-11-07T01:41:48.904Z,16.91
2018-11-07T01:41:49.526Z,16.91
2018-11-07T01:41:50.113Z,16.81
2018-11-07T01:41:50.738Z,16.81
2018-11-07T01:41:51.342Z,17.00
2018-11-07T01:41:51.918Z,16.91
2018-11-07T01:41:52.491Z,17.00
2018-11-07T01:42:46.543Z,16.91
2018-11-07T01:42:47.140Z,16.81
2018-11-07T01:42:47.739Z,16.91
2018-11-07T01:42:48.339Z,16.91
2018-11-07T01:42:48.942Z,17.00
2018-11-07T01:42:49.540Z,16.81
2018-11-07T01:42:50.142Z,16.81
2018-11-07T01:43:44.195Z,16.81
2018-11-07T01:43:44.792Z,16.81
2018-11-07T01:43:45.390Z,16.81
2018-11-07T01:43:45.990Z,16.81
2018-11-07T01:43:46.591Z,16.81
2018-11-07T01:43:47.191Z,16.72
2018-11-07T01:43:47.792Z,16.72
2018-11-07T01:44:41.847Z,16.72
2018-11-07T01:44:42.443Z,16.81
2018-11-07T01:44:43.042Z,16.62
2018-11-07T01:44:43.643Z,16.72
2018-11-07T01:44:44.241Z,16.81
2018-11-07T01:44:44.841Z,16.72
2018-11-07T01:44:45.441Z,16.81
2018-11-07T01:45:39.498Z,16.14
2018-11-07T01:45:40.095Z,16.14
2018-11-07T01:45:40.694Z,16.14
2018-11-07T01:45:41.294Z,16.24
2018-11-07T01:45:41.896Z,16.05
2018-11-07T01:45:42.494Z,16.05
2018-11-07T01:45:43.096Z,16.14
2018-11-07T01:46:37.172Z,16.33
2018-11-07T01:46:37.746Z,16.33
2018-11-07T01:46:38.345Z,16.52
2018-11-07T01:46:38.945Z,16.24
2018-11-07T01:46:39.549Z,16.24
2018-11-07T01:46:40.146Z,16.24
2018-11-07T01:46:40.745Z,16.24
2018-11-07T01:47:34.801Z,16.05
2018-11-07T01:47:35.398Z,16.24
2018-11-07T01:47:35.996Z,16.14
2018-11-07T01:47:36.599Z,16.33
2018-11-07T01:47:37.197Z,16.24
2018-11-07T01:47:37.797Z,16.24
2018-11-07T01:47:38.399Z,15.95
2018-11-07T01:48:32.451Z,16.14
2018-11-07T01:48:33.050Z,16.14
2018-11-07T01:48:33.651Z,15.95
2018-11-07T01:48:34.250Z,15.95
2018-11-07T01:48:34.849Z,16.14
2018-11-07T01:48:35.448Z,16.05
2018-11-07T01:48:36.048Z,16.05
2018-11-07T01:49:30.103Z,16.05
2018-11-07T01:49:30.702Z,16.05
2018-11-07T01:49:31.301Z,16.05
2018-11-07T01:49:31.902Z,16.05
2018-11-07T01:49:32.502Z,16.05
2018-11-07T01:49:33.101Z,16.05
2018-11-07T01:49:33.701Z,15.86
2018-11-07T01:50:27.757Z,15.95
2018-11-07T01:50:28.354Z,16.14
2018-11-07T01:50:28.953Z,16.24
2018-11-07T01:50:29.552Z,16.14
2018-11-07T01:50:30.151Z,16.05
2018-11-07T01:50:30.753Z,16.24
2018-11-07T01:50:31.353Z,16.33
2018-11-07T01:51:25.432Z,15.67
2018-11-07T01:51:26.006Z,16.14
2018-11-07T01:51:26.610Z,15.95
2018-11-07T01:51:27.204Z,15.86
2018-11-07T01:51:27.804Z,15.86
2018-11-07T01:51:28.404Z,15.67
2018-11-07T01:51:29.003Z,16.14
2018-11-07T01:52:23.062Z,15.86
2018-11-07T01:52:23.656Z,15.67
2018-11-07T01:52:24.256Z,15.58
2018-11-07T01:52:24.857Z,15.77
2018-11-07T01:52:25.461Z,15.86
2018-11-07T01:52:26.055Z,15.95
2018-11-07T01:52:26.657Z,15.95
2018-11-07T01:53:20.712Z,15.67
2018-11-07T01:53:21.310Z,15.77
2018-11-07T01:53:21.909Z,15.95
2018-11-07T01:53:22.508Z,15.67
2018-11-07T01:53:23.115Z,15.86
2018-11-07T01:53:23.708Z,15.67
2018-11-07T01:53:24.314Z,15.77
2018-11-07T01:54:18.366Z,15.48
2018-11-07T01:54:18.961Z,15.77
2018-11-07T01:54:19.560Z,15.48
2018-11-07T01:54:20.163Z,15.48
2018-11-07T01:54:20.759Z,15.48
2018-11-07T01:54:21.359Z,15.68
2018-11-07T01:54:21.958Z,15.67
2018-11-07T01:55:16.014Z,15.67
2018-11-07T01:55:16.612Z,15.68
2018-11-07T01:55:17.257Z,15.67
2018-11-07T01:55:17.811Z,15.58
2018-11-07T01:55:18.412Z,15.58
2018-11-07T01:55:19.011Z,15.58
2018-11-07T01:55:19.616Z,15.68
2018-11-07T01:56:13.691Z,15.58
2018-11-07T01:56:14.263Z,15.77
2018-11-07T01:56:14.863Z,15.77
2018-11-07T01:56:15.465Z,15.77
2018-11-07T01:56:16.062Z,15.58
2018-11-07T01:56:16.665Z,15.77
2018-11-07T01:56:17.262Z,15.77
2018-11-07T01:57:11.316Z,15.48
2018-11-07T01:57:11.919Z,15.48
2018-11-07T01:57:12.516Z,15.86
2018-11-07T01:57:13.116Z,15.39
2018-11-07T01:57:13.716Z,15.48
2018-11-07T01:57:14.319Z,15.39
2018-11-07T01:57:14.912Z,15.48
2018-11-07T01:58:08.973Z,15.67
2018-11-07T01:58:09.567Z,15.48
2018-11-07T01:58:10.169Z,15.48
2018-11-07T01:58:10.765Z,15.30
2018-11-07T01:58:11.366Z,15.48
2018-11-07T01:58:11.965Z,15.58
2018-11-07T01:58:12.564Z,15.29
2018-11-07T01:59:06.622Z,15.48
2018-11-07T01:59:07.219Z,15.48
2018-11-07T01:59:07.818Z,15.29
2018-11-07T01:59:08.419Z,15.58
2018-11-07T01:59:09.018Z,15.48
2018-11-07T01:59:09.618Z,15.30
2018-11-07T01:59:10.217Z,15.58
2018-11-07T02:00:04.276Z,15.48
2018-11-07T02:00:04.869Z,15.58
2018-11-07T02:00:05.471Z,15.29
2018-11-07T02:00:06.072Z,15.30
2018-11-07T02:00:06.669Z,15.29
2018-11-07T02:00:07.269Z,15.39
2018-11-07T02:00:07.870Z,15.48
2018-11-07T02:01:01.949Z,15.20
2018-11-07T02:01:02.526Z,15.39
2018-11-07T02:01:03.124Z,15.39
2018-11-07T02:01:03.725Z,15.20
2018-11-07T02:01:04.323Z,15.01
2018-11-07T02:01:04.923Z,15.30
2018-11-07T02:01:05.522Z,15.01
2018-11-07T02:01:59.577Z,15.48
2018-11-07T02:02:00.173Z,15.30
2018-11-07T02:02:00.772Z,15.20
2018-11-07T02:02:01.373Z,15.48
2018-11-07T02:02:01.973Z,15.30
2018-11-07T02:02:02.573Z,15.48
2018-11-07T02:02:03.172Z,15.48
2018-11-07T02:02:57.229Z,15.48
2018-11-07T02:02:57.826Z,15.39
2018-11-07T02:02:58.425Z,15.39
2018-11-07T02:02:59.025Z,15.48
2018-11-07T02:02:59.628Z,15.39
2018-11-07T02:03:00.226Z,15.30
2018-11-07T02:03:00.826Z,15.11
2018-11-07T02:03:54.882Z,15.48
2018-11-07T02:03:55.476Z,15.68
2018-11-07T02:03:56.076Z,15.77
2018-11-07T02:03:56.677Z,15.48
2018-11-07T02:03:57.278Z,15.58
2018-11-07T02:03:57.906Z,15.58
2018-11-07T02:03:58.477Z,15.77
2018-11-07T02:04:52.532Z,15.77
2018-11-07T02:04:53.130Z,15.68
2018-11-07T02:04:53.729Z,15.86
2018-11-07T02:04:54.328Z,15.68
2018-11-07T02:04:54.929Z,15.68
2018-11-07T02:04:55.532Z,15.68
2018-11-07T02:04:56.129Z,15.77
2018-11-07T02:05:50.190Z,15.68
2018-11-07T02:05:50.787Z,15.68
2018-11-07T02:05:51.387Z,15.68
2018-11-07T02:05:51.985Z,15.68
2018-11-07T02:05:52.587Z,15.68
2018-11-07T02:05:53.187Z,15.68
2018-11-07T02:05:53.786Z,15.68
2018-11-07T02:06:47.868Z,15.87
2018-11-07T02:06:48.438Z,15.96
2018-11-07T02:06:49.038Z,15.77
2018-11-07T02:06:49.638Z,15.87
2018-11-07T02:06:50.238Z,15.96
2018-11-07T02:06:50.838Z,16.06
2018-11-07T02:06:51.438Z,15.87
2018-11-07T02:07:45.492Z,15.87
2018-11-07T02:07:46.090Z,15.87
2018-11-07T02:07:46.692Z,15.87
2018-11-07T02:07:47.291Z,15.87
2018-11-07T02:07:47.890Z,15.87
2018-11-07T02:07:48.491Z,15.87
2018-11-07T02:07:49.091Z,15.87
2018-11-07T02:08:43.145Z,16.35
2018-11-07T02:08:43.743Z,16.15
2018-11-07T02:08:44.343Z,16.06
2018-11-07T02:08:44.942Z,16.25
2018-11-07T02:08:45.543Z,16.35
2018-11-07T02:08:46.144Z,16.15
2018-11-07T02:08:46.740Z,16.25
2018-11-07T02:09:40.797Z,16.06
2018-11-07T02:09:41.394Z,15.87
2018-11-07T02:09:41.995Z,16.06
2018-11-07T02:09:42.594Z,15.87
2018-11-07T02:09:43.195Z,16.06
2018-11-07T02:09:43.793Z,16.06
2018-11-07T02:09:44.393Z,15.87
2018-11-07T02:10:38.451Z,16.25
2018-11-07T02:10:39.046Z,16.44
2018-11-07T02:10:39.644Z,16.25
2018-11-07T02:10:40.244Z,16.35
2018-11-07T02:10:40.844Z,16.35
2018-11-07T02:10:41.445Z,16.35
2018-11-07T02:10:42.045Z,16.35
2018-11-07T02:11:36.127Z,16.35
2018-11-07T02:11:36.702Z,16.35
2018-11-07T02:11:37.302Z,16.35
2018-11-07T02:11:37.896Z,16.35
2018-11-07T02:11:38.496Z,16.25
2018-11-07T02:11:39.097Z,16.25
2018-11-07T02:11:39.696Z,16.25
2018-11-07T02:12:33.752Z,16.91
2018-11-07T02:12:34.352Z,16.91
2018-11-07T02:12:34.949Z,16.91
2018-11-07T02:12:35.549Z,16.91
2018-11-07T02:12:36.149Z,16.91
2018-11-07T02:12:36.752Z,16.91
2018-11-07T02:12:37.348Z,16.63
2018-11-07T02:13:31.406Z,16.91
2018-11-07T02:13:32.002Z,17.01
2018-11-07T02:13:32.601Z,16.91
2018-11-07T02:13:33.202Z,17.01
2018-11-07T02:13:33.803Z,17.01
2018-11-07T02:13:34.401Z,16.91
2018-11-07T02:13:35.000Z,17.01
2018-11-07T02:14:29.056Z,17.39
2018-11-07T02:14:29.652Z,17.29
2018-11-07T02:14:30.252Z,17.29
2018-11-07T02:14:30.854Z,17.29
2018-11-07T02:14:31.453Z,17.29
2018-11-07T02:14:32.052Z,17.20
2018-11-07T02:14:32.653Z,17.39
2018-11-07T02:15:26.706Z,17.39
2018-11-07T02:15:27.304Z,17.58
2018-11-07T02:15:27.908Z,17.48
2018-11-07T02:15:28.504Z,17.48
2018-11-07T02:15:29.103Z,17.48
2018-11-07T02:15:29.705Z,17.48
2018-11-07T02:15:30.303Z,17.48
2018-11-07T02:16:24.387Z,17.39
2018-11-07T02:16:24.958Z,17.48
2018-11-07T02:16:25.556Z,17.77
2018-11-07T02:16:26.156Z,17.48
2018-11-07T02:16:26.757Z,17.39
2018-11-07T02:16:27.357Z,17.48
2018-11-07T02:16:27.956Z,17.39
2018-11-07T02:17:22.011Z,17.77
2018-11-07T02:17:22.608Z,17.96
2018-11-07T02:17:23.207Z,17.86
2018-11-07T02:17:23.806Z,18.05
2018-11-07T02:17:24.407Z,18.05
2018-11-07T02:17:25.007Z,17.86
2018-11-07T02:17:25.607Z,18.05
2018-11-07T02:18:19.663Z,18.62
2018-11-07T02:18:20.260Z,18.43
2018-11-07T02:18:20.862Z,18.34
2018-11-07T02:18:21.460Z,17.96
2018-11-07T02:18:22.059Z,18.62
2018-11-07T02:18:22.665Z,18.53
2018-11-07T02:18:23.258Z,18.62
2018-11-07T02:19:17.314Z,18.72
2018-11-07T02:19:17.911Z,18.72
2018-11-07T02:19:18.511Z,18.91
2018-11-07T02:19:19.110Z,18.72
2018-11-07T02:19:19.710Z,18.81
2018-11-07T02:19:20.316Z,18.72
2018-11-07T02:19:20.909Z,18.81
2018-11-07T02:20:14.964Z,18.72
2018-11-07T02:20:15.563Z,18.72
2018-11-07T02:20:16.161Z,18.62
2018-11-07T02:20:16.762Z,18.62
2018-11-07T02:20:17.363Z,18.62
2018-11-07T02:20:17.962Z,18.62
2018-11-07T02:20:18.562Z,18.62
2018-11-07T02:21:12.644Z,19.48
2018-11-07T02:21:13.214Z,19.48
2018-11-07T02:21:13.816Z,19.29
2018-11-07T02:21:14.415Z,19.48
2018-11-07T02:21:15.014Z,19.48
2018-11-07T02:21:15.619Z,19.38
2018-11-07T02:21:16.214Z,19.48
2018-11-07T02:22:10.270Z,19.76
2018-11-07T02:22:10.867Z,19.86
2018-11-07T02:22:11.466Z,19.57
2018-11-07T02:22:12.067Z,19.57
2018-11-07T02:22:12.664Z,19.57
2018-11-07T02:22:13.268Z,19.67
2018-11-07T02:22:13.865Z,19.57
2018-11-07T02:23:07.919Z,20.05
2018-11-07T02:23:08.518Z,19.95
2018-11-07T02:23:09.118Z,19.95
2018-11-07T02:23:09.717Z,20.05
2018-11-07T02:23:10.318Z,19.95
2018-11-07T02:23:10.918Z,19.86
2018-11-07T02:23:11.518Z,19.95
2018-11-07T02:24:05.573Z,20.53
2018-11-07T02:24:06.171Z,20.53
2018-11-07T02:24:06.769Z,20.53
2018-11-07T02:24:07.372Z,21.09
2018-11-07T02:24:07.969Z,20.81
2018-11-07T02:24:08.576Z,20.53
2018-11-07T02:24:09.169Z,20.90
2018-11-07T02:25:03.224Z,21.19
2018-11-07T02:25:03.821Z,21.09
2018-11-07T02:25:04.421Z,21.00
2018-11-07T02:25:05.023Z,21.09
2018-11-07T02:25:05.621Z,21.09
2018-11-07T02:25:06.220Z,21.09
2018-11-07T02:25:06.820Z,20.90
2018-11-07T02:26:00.904Z,21.47
2018-11-07T02:26:01.474Z,21.67
2018-11-07T02:26:02.072Z,21.28
2018-11-07T02:26:02.677Z,21.57
2018-11-07T02:26:03.272Z,21.76
2018-11-07T02:26:03.872Z,21.76
2018-11-07T02:26:04.473Z,21.76
2018-11-07T02:26:58.528Z,21.76
2018-11-07T02:26:59.126Z,21.95
2018-11-07T02:26:59.728Z,21.95
2018-11-07T02:27:00.323Z,21.95
2018-11-07T02:27:00.923Z,21.86
2018-11-07T02:27:01.524Z,21.86
2018-11-07T02:27:02.123Z,21.95
2018-11-07T02:27:56.179Z,22.42
2018-11-07T02:27:56.775Z,22.52
2018-11-07T02:27:57.374Z,22.42
2018-11-07T02:27:57.973Z,22.33
2018-11-07T02:27:58.573Z,22.33
2018-11-07T02:27:59.175Z,22.42
2018-11-07T02:27:59.776Z,22.42
2018-11-07T02:28:53.829Z,23.09
2018-11-07T02:28:54.426Z,22.90
2018-11-07T02:28:55.026Z,23.47
2018-11-07T02:28:55.625Z,23.19
2018-11-07T02:28:56.226Z,23.38
2018-11-07T02:28:56.827Z,23.28
2018-11-07T02:28:57.425Z,23.19
2018-11-07T02:29:51.481Z,23.85
2018-11-07T02:29:52.078Z,23.94
2018-11-07T02:29:52.677Z,23.85
2018-11-07T02:29:53.277Z,23.85
2018-11-07T02:29:53.877Z,23.85
2018-11-07T02:29:54.477Z,23.66
2018-11-07T02:29:55.077Z,23.85
2018-11-07T02:30:49.158Z,24.23
2018-11-07T02:30:49.728Z,24.13
2018-11-07T02:30:50.330Z,24.23
2018-11-07T02:30:50.928Z,24.23
2018-11-07T02:30:51.529Z,24.23
2018-11-07T02:30:52.127Z,24.23
2018-11-07T02:30:52.729Z,24.13
2018-11-07T02:31:46.788Z,24.90
2018-11-07T02:31:47.385Z,24.80
2018-11-07T02:31:47.990Z,24.90
2018-11-07T02:31:48.585Z,24.80
2018-11-07T02:31:49.190Z,24.80
2018-11-07T02:31:49.785Z,24.61
2018-11-07T02:31:50.385Z,24.61
2018-11-07T02:32:44.439Z,25.18
2018-11-07T02:32:45.034Z,25.09
2018-11-07T02:32:45.639Z,25.27
2018-11-07T02:32:46.232Z,25.09
2018-11-07T02:32:46.833Z,25.18
2018-11-07T02:32:47.433Z,25.27
2018-11-07T02:32:48.037Z,25.27
2018-11-07T02:33:42.087Z,25.75
2018-11-07T02:33:42.684Z,25.56
2018-11-07T02:33:43.289Z,25.75
2018-11-07T02:33:43.886Z,25.85
2018-11-07T02:33:44.484Z,25.75
2018-11-07T02:33:45.085Z,25.75
2018-11-07T02:33:45.684Z,26.04
2018-11-07T02:34:39.741Z,26.13
2018-11-07T02:34:40.337Z,26.32
2018-11-07T02:34:40.934Z,26.13
2018-11-07T02:34:41.534Z,26.23
2018-11-07T02:34:42.134Z,26.13
2018-11-07T02:34:42.738Z,26.13
2018-11-07T02:34:43.334Z,26.13
2018-11-07T02:35:37.416Z,26.32
2018-11-07T02:35:37.989Z,26.13
2018-11-07T02:35:38.589Z,26.13
2018-11-07T02:35:39.188Z,26.32
2018-11-07T02:35:39.789Z,26.23
2018-11-07T02:35:40.393Z,26.23
2018-11-07T02:35:40.990Z,26.32
2018-11-07T02:36:35.044Z,26.23
2018-11-07T02:36:35.639Z,26.13
2018-11-07T02:36:36.241Z,26.13
2018-11-07T02:36:36.844Z,26.23
2018-11-07T02:36:37.440Z,26.23
2018-11-07T02:36:38.041Z,26.04
2018-11-07T02:36:38.639Z,26.23
2018-11-07T02:37:32.694Z,26.42
2018-11-07T02:37:33.290Z,26.32
2018-11-07T02:37:33.893Z,26.42
2018-11-07T02:37:34.494Z,26.32
2018-11-07T02:37:35.091Z,26.32
2018-11-07T02:37:35.689Z,26.32
2018-11-07T02:37:36.292Z,26.42
2018-11-07T02:38:30.348Z,26.98
2018-11-07T02:38:30.943Z,27.27
2018-11-07T02:38:31.545Z,26.98
2018-11-07T02:38:32.142Z,27.18
2018-11-07T02:38:32.741Z,27.18
2018-11-07T02:38:33.344Z,26.79
2018-11-07T02:38:33.943Z,26.79
2018-11-07T02:39:27.998Z,27.18
2018-11-07T02:39:28.595Z,27.56
2018-11-07T02:39:29.194Z,27.56
2018-11-07T02:39:29.793Z,27.37
2018-11-07T02:39:30.394Z,27.27
2018-11-07T02:39:30.996Z,27.65
2018-11-07T02:39:31.595Z,27.56
2018-11-07T02:40:25.649Z,27.46
2018-11-07T02:40:26.246Z,27.27
2018-11-07T02:40:26.847Z,27.56
2018-11-07T02:40:27.447Z,27.18
2018-11-07T02:40:28.047Z,27.56
2018-11-07T02:40:28.648Z,27.18
2018-11-07T02:40:29.247Z,27.56
2018-11-07T02:41:23.325Z,27.27
2018-11-07T02:41:23.897Z,27.18
2018-11-07T02:41:24.499Z,27.27
2018-11-07T02:41:25.098Z,27.37
2018-11-07T02:41:25.699Z,27.27
2018-11-07T02:41:26.305Z,27.37
2018-11-07T02:41:26.899Z,27.27
2018-11-07T02:42:20.953Z,27.37
2018-11-07T02:42:21.550Z,27.56
2018-11-07T02:42:22.152Z,27.37
2018-11-07T02:42:22.753Z,27.56
2018-11-07T02:42:23.362Z,27.37
2018-11-07T02:42:23.952Z,27.56
2018-11-07T02:42:24.549Z,27.56
2018-11-07T02:43:18.607Z,27.94
2018-11-07T02:43:19.217Z,27.65
2018-11-07T02:43:19.804Z,27.65
2018-11-07T02:43:20.404Z,27.84
2018-11-07T02:43:21.005Z,27.65
2018-11-07T02:43:21.609Z,27.75
2018-11-07T02:43:22.206Z,27.65
2018-11-07T02:44:16.257Z,27.94
2018-11-07T02:44:16.860Z,27.94
2018-11-07T02:44:17.453Z,27.84
2018-11-07T02:44:18.051Z,27.84
2018-11-07T02:44:18.652Z,27.84
2018-11-07T02:44:19.252Z,27.75
2018-11-07T02:44:19.851Z,27.84
2018-11-07T02:45:13.910Z,27.84
2018-11-07T02:45:14.507Z,27.94
2018-11-07T02:45:15.104Z,28.03
2018-11-07T02:45:15.716Z,27.94
2018-11-07T02:45:16.304Z,27.94
2018-11-07T02:45:16.905Z,27.94
2018-11-07T02:45:17.505Z,27.65
2018-11-07T02:46:11.587Z,27.65
2018-11-07T02:46:12.157Z,27.65
2018-11-07T02:46:12.759Z,27.84
2018-11-07T02:46:13.362Z,27.75
2018-11-07T02:46:13.954Z,27.37
2018-11-07T02:46:14.554Z,27.65
2018-11-07T02:46:15.154Z,27.75
2018-11-07T02:47:09.218Z,27.18
2018-11-07T02:47:09.807Z,27.37
2018-11-07T02:47:10.406Z,27.27
2018-11-07T02:47:11.006Z,27.27
2018-11-07T02:47:11.606Z,27.37
2018-11-07T02:47:12.206Z,27.28
2018-11-07T02:47:12.808Z,27.46
2018-11-07T02:48:06.863Z,26.51
2018-11-07T02:48:07.460Z,26.62
2018-11-07T02:48:08.063Z,26.53
2018-11-07T02:48:08.660Z,26.53
2018-11-07T02:48:09.262Z,26.70
2018-11-07T02:48:09.858Z,26.42
2018-11-07T02:48:10.459Z,26.72
2018-11-07T02:49:04.514Z,26.24
2018-11-07T02:49:05.114Z,26.32
2018-11-07T02:49:05.711Z,26.34
2018-11-07T02:49:06.310Z,26.32
2018-11-07T02:49:06.915Z,26.14
2018-11-07T02:49:07.510Z,26.14
2018-11-07T02:49:08.111Z,26.13
2018-11-07T02:50:02.169Z,25.95
2018-11-07T02:50:02.763Z,25.75
2018-11-07T02:50:03.364Z,25.76
2018-11-07T02:50:03.963Z,25.76
2018-11-07T02:50:04.565Z,26.05
2018-11-07T02:50:05.163Z,25.76
2018-11-07T02:50:05.767Z,25.76
2018-11-07T02:50:59.841Z,26.24
2018-11-07T02:51:00.416Z,26.13
2018-11-07T02:51:01.016Z,26.05
2018-11-07T02:51:01.616Z,25.95
2018-11-07T02:51:02.215Z,26.05
2018-11-07T02:51:02.814Z,26.14
2018-11-07T02:51:03.421Z,26.05
2018-11-07T02:51:57.473Z,26.14
2018-11-07T02:51:58.067Z,26.34
2018-11-07T02:51:58.666Z,26.24
2018-11-07T02:51:59.274Z,26.24
2018-11-07T02:51:59.868Z,26.05
2018-11-07T02:52:00.465Z,26.05
2018-11-07T02:52:01.356Z,26.24
2018-11-07T02:52:55.353Z,26.14
2018-11-07T02:52:55.924Z,26.05
2018-11-07T02:52:56.523Z,26.24
2018-11-07T02:52:57.125Z,26.24
2018-11-07T02:52:57.722Z,26.05
2018-11-07T02:52:58.324Z,26.14
2018-11-07T02:52:58.923Z,26.14
2018-11-07T02:53:52.978Z,27.09
2018-11-07T02:53:53.574Z,27.09
2018-11-07T02:53:54.174Z,27.09
2018-11-07T02:53:54.775Z,27.48
2018-11-07T02:53:55.373Z,27.00
2018-11-07T02:53:55.980Z,27.48
2018-11-07T02:53:56.573Z,27.00
2018-11-07T02:54:50.632Z,27.48
2018-11-07T02:54:51.227Z,27.48
2018-11-07T02:54:51.835Z,27.28
2018-11-07T02:54:52.426Z,27.67
2018-11-07T02:54:53.026Z,27.38
2018-11-07T02:54:53.627Z,27.38
2018-11-07T02:54:54.225Z,27.57
2018-11-07T02:55:48.310Z,28.62
2018-11-07T02:55:48.882Z,28.52
2018-11-07T02:55:49.480Z,28.52
2018-11-07T02:55:50.081Z,28.33
2018-11-07T02:55:50.679Z,28.71
2018-11-07T02:55:51.278Z,28.33
2018-11-07T02:55:51.881Z,28.33
2018-11-07T02:56:45.934Z,29.19
2018-11-07T02:56:46.531Z,29.19
2018-11-07T02:56:47.134Z,29.19
2018-11-07T02:56:47.729Z,29.19
2018-11-07T02:56:48.329Z,29.19
2018-11-07T02:56:48.931Z,29.19
2018-11-07T02:56:49.530Z,29.19
2018-11-07T02:57:43.584Z,30.04
2018-11-07T02:57:44.182Z,30.23
2018-11-07T02:57:44.783Z,30.14
2018-11-07T02:57:45.381Z,30.33
2018-11-07T02:57:45.984Z,30.14
2018-11-07T02:57:46.581Z,30.04
2018-11-07T02:57:47.188Z,30.14
2018-11-07T02:58:41.237Z,30.33
2018-11-07T02:58:41.837Z,30.33
2018-11-07T02:58:42.432Z,30.23
2018-11-07T02:58:43.031Z,30.23
2018-11-07T02:58:43.631Z,30.52
2018-11-07T02:58:44.231Z,30.33
2018-11-07T02:58:44.834Z,30.43
2018-11-07T02:59:38.888Z,30.99
2018-11-07T02:59:39.488Z,30.99
2018-11-07T02:59:40.084Z,31.09
2018-11-07T02:59:40.685Z,30.99
2018-11-07T02:59:41.285Z,30.90
2018-11-07T02:59:41.889Z,31.09
2018-11-07T02:59:42.490Z,31.28
2018-11-07T03:00:36.562Z,31.47
2018-11-07T03:00:37.138Z,31.47
2018-11-07T03:00:37.739Z,31.37
2018-11-07T03:00:38.341Z,31.56
2018-11-07T03:00:38.936Z,31.47
2018-11-07T03:00:39.538Z,31.56
2018-11-07T03:00:40.137Z,31.66
2018-11-07T03:01:34.190Z,32.14
2018-11-07T03:01:34.791Z,32.23
2018-11-07T03:01:35.389Z,32.14
2018-11-07T03:01:35.988Z,32.04
2018-11-07T03:01:36.589Z,32.04
2018-11-07T03:01:37.191Z,32.14
2018-11-07T03:01:37.788Z,32.23
2018-11-07T03:02:31.897Z,32.42
2018-11-07T03:02:32.442Z,32.42
2018-11-07T03:02:33.041Z,32.51
2018-11-07T03:02:33.643Z,32.51
2018-11-07T03:02:34.244Z,32.51
2018-11-07T03:02:34.842Z,32.61
2018-11-07T03:02:35.439Z,32.42
2018-11-07T03:03:29.495Z,33.64
2018-11-07T03:03:30.092Z,33.65
2018-11-07T03:03:30.691Z,33.18
2018-11-07T03:03:31.293Z,33.28
2018-11-07T03:03:31.893Z,33.28
2018-11-07T03:03:32.493Z,33.28
2018-11-07T03:03:33.093Z,33.18
2018-11-07T03:04:27.148Z,34.23
2018-11-07T03:04:27.744Z,34.13
2018-11-07T03:04:28.344Z,34.32
2018-11-07T03:04:28.944Z,34.32
2018-11-07T03:04:29.545Z,34.13
2018-11-07T03:04:30.140Z,34.23
2018-11-07T03:04:30.741Z,34.23
2018-11-07T03:05:24.798Z,34.42
2018-11-07T03:05:25.396Z,34.89
2018-11-07T03:05:25.999Z,35.06
2018-11-07T03:05:26.595Z,35.08
2018-11-07T03:05:27.195Z,34.70
2018-11-07T03:05:27.797Z,34.99
2018-11-07T03:05:28.395Z,34.89
2018-11-07T03:06:22.473Z,35.17
2018-11-07T03:06:23.049Z,35.27
2018-11-07T03:06:23.650Z,35.27
2018-11-07T03:06:24.247Z,35.27
2018-11-07T03:06:24.849Z,35.46
2018-11-07T03:06:25.448Z,35.27
2018-11-07T03:06:26.046Z,35.27
2018-11-07T03:07:20.102Z,35.83
2018-11-07T03:07:20.698Z,35.84
2018-11-07T03:07:21.300Z,35.75
2018-11-07T03:07:21.899Z,35.84
2018-11-07T03:07:22.499Z,35.75
2018-11-07T03:07:23.099Z,35.84
2018-11-07T03:07:23.698Z,35.75
2018-11-07T03:08:17.243Z,36.04
2018-11-07T03:08:17.843Z,36.04
2018-11-07T03:08:18.446Z,36.04
2018-11-07T03:08:19.044Z,36.04
2018-11-07T03:08:19.639Z,36.04
2018-11-07T03:08:20.239Z,36.04
2018-11-07T03:08:20.840Z,36.13
2018-11-07T03:08:21.440Z,36.04
2018-11-07T03:09:15.406Z,36.22
2018-11-07T03:09:16.008Z,36.22
2018-11-07T03:09:16.603Z,36.22
2018-11-07T03:09:17.201Z,36.22
2018-11-07T03:09:17.801Z,36.22
2018-11-07T03:09:18.407Z,36.51
2018-11-07T03:09:19.004Z,36.22
2018-11-07T03:10:33.187Z,37.18
2018-11-07T03:10:33.692Z,37.27
2018-11-07T03:10:34.279Z,37.18
2018-11-07T03:10:34.843Z,37.27
2018-11-07T03:10:35.451Z,37.46
2018-11-07T03:10:36.057Z,37.37
2018-11-07T03:10:36.641Z,37.37
2018-11-07T03:11:30.676Z,37.46
2018-11-07T03:11:31.279Z,37.93
2018-11-07T03:11:31.874Z,37.84
2018-11-07T03:11:32.476Z,37.74
2018-11-07T03:11:33.079Z,37.84
2018-11-07T03:11:33.674Z,37.84
2018-11-07T03:11:34.273Z,37.74
2018-11-07T03:12:27.817Z,38.12
2018-11-07T03:12:28.417Z,37.84
2018-11-07T03:12:29.012Z,37.84
2018-11-07T03:12:29.612Z,37.93
2018-11-07T03:12:30.212Z,38.12
2018-11-07T03:12:30.816Z,37.84
2018-11-07T03:12:31.412Z,37.92
2018-11-07T03:12:32.011Z,38.03
2018-11-07T03:13:25.979Z,38.68
2018-11-07T03:13:26.581Z,38.89
2018-11-07T03:13:27.176Z,38.79
2018-11-07T03:13:27.777Z,38.70
2018-11-07T03:13:28.376Z,38.79
2018-11-07T03:13:28.977Z,38.60
2018-11-07T03:13:29.582Z,38.79
2018-11-07T03:14:43.600Z,38.87
2018-11-07T03:14:44.196Z,39.07
2018-11-07T03:14:44.796Z,39.07
2018-11-07T03:14:45.401Z,39.07
2018-11-07T03:14:45.999Z,39.07
2018-11-07T03:14:46.595Z,38.98
2018-11-07T03:14:47.197Z,39.07
2018-11-07T03:15:41.278Z,39.65